createdAt,value
2022-09-10T00:01:22.461Z,2.50
2022-09-10T00:03:49.995Z,2.42
2022-09-10T00:06:20.513Z,1.35
2022-09-10T00:08:51.874Z,1.25
2022-09-10T00:11:20.244Z,1.55
2022-09-10T00:13:47.530Z,2.00
2022-09-10T00:16:15.408Z,1.55
2022-09-10T00:18:48.909Z,1.63
2022-09-10T00:21:18.098Z,2.30
2022-09-10T00:23:50.023Z,2.08
2022-09-10T00:26:21.683Z,2.70
2022-09-10T00:28:49.874Z,2.58
2022-09-10T00:31:47.306Z,3.10
2022-09-10T00:34:08.694Z,2.45
2022-09-10T00:36:39.617Z,3.08
2022-09-10T00:39:11.284Z,3.00
2022-09-10T00:41:39.851Z,3.45
2022-09-10T00:44:27.441Z,3.60
2022-09-10T00:46:54.601Z,3.47
2022-09-10T00:49:31.914Z,2.17
2022-09-10T00:51:58.994Z,1.50
2022-09-10T00:54:26.322Z,1.17
2022-09-10T00:56:57.061Z,0.85
2022-09-10T00:59:25.671Z,1.00
2022-09-10T01:01:52.560Z,1.13
2022-09-10T01:04:21.445Z,1.42
2022-09-10T01:06:53.892Z,1.33
2022-09-10T01:09:23.693Z,1.30
2022-09-10T01:12:20.047Z,1.40
2022-09-10T01:14:58.110Z,1.02
2022-09-10T01:17:40.858Z,0.50
2022-09-10T01:20:47.401Z,0.95
2022-09-10T01:23:33.784Z,0.95
2022-09-10T01:26:06.777Z,0.60
2022-09-10T01:28:55.932Z,1.15
2022-09-10T01:31:35.695Z,1.25
2022-09-10T01:34:07.282Z,1.10
2022-09-10T01:36:38.821Z,1.02
2022-09-10T01:39:05.220Z,0.90
2022-09-10T01:41:34.473Z,0.80
2022-09-10T01:44:09.257Z,0.80
2022-09-10T01:46:49.683Z,0.70
2022-09-10T01:49:37.101Z,1.10
2022-09-10T01:52:26.271Z,0.73
2022-09-10T01:55:30.403Z,0.95
2022-09-10T01:58:02.832Z,1.00
2022-09-10T02:00:29.861Z,1.05
2022-09-10T02:03:00.257Z,1.30
2022-09-10T02:05:31.777Z,1.00
2022-09-10T02:08:03.806Z,0.82
2022-09-10T02:10:30.867Z,1.00
2022-09-10T02:12:57.395Z,0.60
2022-09-10T02:15:28.700Z,0.60
2022-09-10T02:17:55.920Z,0.70
2022-09-10T02:20:23.103Z,0.60
2022-09-10T02:22:57.378Z,0.75
2022-09-10T02:25:25.593Z,0.43
2022-09-10T02:27:52.076Z,0.52
2022-09-10T02:30:22.185Z,0.90
2022-09-10T02:32:48.614Z,0.50
2022-09-10T02:35:17.851Z,0.68
2022-09-10T02:37:45.760Z,0.90
2022-09-10T02:40:12.481Z,0.60
2022-09-10T02:42:38.957Z,1.42
2022-09-10T02:45:09.641Z,0.90
2022-09-10T02:47:36.076Z,1.08
2022-09-10T02:50:02.493Z,1.10
2022-09-10T02:52:29.248Z,1.10
2022-09-10T02:54:57.798Z,1.48
2022-09-10T02:57:24.335Z,1.30
2022-09-10T02:59:50.887Z,1.17
2022-09-10T03:02:18.868Z,0.90
2022-09-10T03:04:45.741Z,1.50
2022-09-10T03:07:18.243Z,1.38
2022-09-10T03:09:54.857Z,1.42
2022-09-10T03:12:30.371Z,1.00
2022-09-10T03:14:58.995Z,1.20
2022-09-10T03:17:26.944Z,1.02
2022-09-10T03:20:00.582Z,1.30
2022-09-10T03:22:27.009Z,1.00
2022-09-10T03:24:55.033Z,1.55
2022-09-10T03:27:22.775Z,1.08
2022-09-10T03:29:49.228Z,1.10
2022-09-10T03:32:15.665Z,1.00
2022-09-10T03:34:42.098Z,1.17
2022-09-10T03:37:08.550Z,1.80
2022-09-10T03:39:35.855Z,1.48
2022-09-10T03:42:05.155Z,1.05
2022-09-10T03:44:33.490Z,0.82
2022-09-10T03:47:00.697Z,1.05
2022-09-10T03:49:27.557Z,1.35
2022-09-10T03:51:57.064Z,1.60
2022-09-10T03:54:29.377Z,0.70
2022-09-10T03:56:55.818Z,1.33
2022-09-10T03:59:22.338Z,1.42
2022-09-10T04:01:48.958Z,1.42
2022-09-10T04:04:38.410Z,1.10
2022-09-10T04:07:08.068Z,1.20
2022-09-10T04:09:36.943Z,1.27
2022-09-10T04:12:07.325Z,0.82
2022-09-10T04:14:34.404Z,1.27
2022-09-10T04:17:05.338Z,1.25
2022-09-10T04:19:31.782Z,1.70
2022-09-10T04:21:58.267Z,1.25
2022-09-10T04:24:24.781Z,1.40
2022-09-10T04:26:51.274Z,1.58
2022-09-10T04:29:17.956Z,1.50
2022-09-10T04:31:46.777Z,1.17
2022-09-10T04:34:15.451Z,0.60
2022-09-10T04:36:44.102Z,1.05
2022-09-10T04:39:11.785Z,1.50
2022-09-10T04:41:40.301Z,1.63
2022-09-10T04:44:06.879Z,1.30
2022-09-10T04:46:33.457Z,0.98
2022-09-10T04:49:04.049Z,1.42
2022-09-10T04:51:30.510Z,1.40
2022-09-10T04:53:59.392Z,1.67
2022-09-10T04:56:26.335Z,1.70
2022-09-10T04:58:53.167Z,1.60
2022-09-10T05:01:21.735Z,1.02
2022-09-10T05:03:48.170Z,2.20
2022-09-10T05:06:14.599Z,1.30
2022-09-10T05:08:43.338Z,1.05
2022-09-10T05:11:15.196Z,1.17
2022-09-10T05:13:43.037Z,1.80
2022-09-10T05:16:09.632Z,1.60
2022-09-10T05:18:41.893Z,1.65
2022-09-10T05:21:12.629Z,1.70
2022-09-10T05:23:39.525Z,1.90
2022-09-10T05:26:13.608Z,1.63
2022-09-10T05:28:42.663Z,1.30
2022-09-10T05:31:09.885Z,1.48
2022-09-10T05:33:36.710Z,1.48
2022-09-10T05:36:09.792Z,2.03
2022-09-10T05:38:39.873Z,1.60
2022-09-10T05:41:10.458Z,1.23
2022-09-10T05:43:37.017Z,1.42
2022-09-10T05:46:06.492Z,1.55
2022-09-10T05:48:32.952Z,1.52
2022-09-10T05:50:59.718Z,2.67
2022-09-10T05:53:26.193Z,1.85
2022-09-10T05:55:52.608Z,1.98
2022-09-10T05:58:21.303Z,2.15
2022-09-10T06:00:50.879Z,1.20
2022-09-10T06:03:17.737Z,2.10
2022-09-10T06:05:53.027Z,3.42
2022-09-10T06:08:23.396Z,2.45
2022-09-10T06:11:02.782Z,3.15
2022-09-10T06:13:29.254Z,3.28
2022-09-10T06:15:55.790Z,1.17
2022-09-10T06:18:22.238Z,2.33
2022-09-10T06:20:52.631Z,2.17
2022-09-10T06:23:19.094Z,2.78
2022-09-10T06:25:45.991Z,2.08
2022-09-10T06:28:12.612Z,2.83
2022-09-10T06:30:39.622Z,2.50
2022-09-10T06:33:09.711Z,2.00
2022-09-10T06:35:39.188Z,2.28
2022-09-10T06:38:05.705Z,2.50
2022-09-10T06:40:35.161Z,2.40
2022-09-10T06:43:04.469Z,2.13
2022-09-10T06:45:30.951Z,2.38
2022-09-10T06:48:37.658Z,2.13
2022-09-10T06:50:57.400Z,2.08
2022-09-10T06:53:25.485Z,2.35
2022-09-10T06:55:52.848Z,1.60
2022-09-10T06:58:22.592Z,1.75
2022-09-10T07:00:50.021Z,1.17
2022-09-10T07:03:18.114Z,1.50
2022-09-10T07:05:47.874Z,1.58
2022-09-10T07:08:22.786Z,1.23
2022-09-10T07:10:49.764Z,1.60
2022-09-10T07:13:16.486Z,1.30
2022-09-10T07:15:48.158Z,1.52
2022-09-10T07:18:14.801Z,1.55
2022-09-10T07:20:43.332Z,1.20
2022-09-10T07:23:14.399Z,1.80
2022-09-10T07:25:41.492Z,1.20
2022-09-10T07:28:13.155Z,1.20
2022-09-10T07:30:41.057Z,1.70
2022-09-10T07:33:08.561Z,1.10
2022-09-10T07:35:36.388Z,1.30
2022-09-10T07:38:04.921Z,0.88
2022-09-10T07:40:32.763Z,1.25
2022-09-10T07:43:02.473Z,0.90
2022-09-10T07:45:31.378Z,1.17
2022-09-10T07:47:57.926Z,1.42
2022-09-10T07:50:24.452Z,1.35
2022-09-10T07:52:51.310Z,1.80
2022-09-10T07:55:18.223Z,1.42
2022-09-10T07:57:48.620Z,1.10
2022-09-10T08:00:16.814Z,0.77
2022-09-10T08:02:44.206Z,1.38
2022-09-10T08:05:11.856Z,1.17
2022-09-10T08:07:44.769Z,1.70
2022-09-10T08:10:11.707Z,1.20
2022-09-10T08:12:39.643Z,1.40
2022-09-10T08:15:07.950Z,1.10
2022-09-10T08:17:37.502Z,0.90
2022-09-10T08:20:08.531Z,0.90
2022-09-10T08:22:35.419Z,1.00
2022-09-10T08:25:02.767Z,1.00
2022-09-10T08:27:29.214Z,1.00
2022-09-10T08:29:57.965Z,0.65
2022-09-10T08:32:24.493Z,0.80
2022-09-10T08:34:51.706Z,1.10
2022-09-10T08:37:18.964Z,0.73
2022-09-10T08:39:45.431Z,0.95
2022-09-10T08:42:19.772Z,0.98
2022-09-10T08:45:00.181Z,1.10
2022-09-10T08:47:33.313Z,1.10
2022-09-10T08:50:16.874Z,0.70
2022-09-10T08:52:51.802Z,0.43
2022-09-10T08:55:18.185Z,0.70
2022-09-10T08:57:54.303Z,0.55
2022-09-10T09:00:24.064Z,0.70
2022-09-10T09:03:05.343Z,0.70
2022-09-10T09:05:46.025Z,0.90
2022-09-10T09:08:15.179Z,0.80
2022-09-10T09:11:14.285Z,0.73
2022-09-10T09:13:59.811Z,0.63
2022-09-10T09:16:41.781Z,0.80
2022-09-10T09:19:14.813Z,0.50
2022-09-10T09:21:52.304Z,0.70
2022-09-10T09:24:45.901Z,0.60
2022-09-10T09:27:18.508Z,0.50
2022-09-10T09:30:15.986Z,0.40
2022-09-10T09:32:44.394Z,0.70
2022-09-10T09:35:21.891Z,0.30
2022-09-10T09:37:48.455Z,0.80
2022-09-10T09:40:21.544Z,0.60
2022-09-10T09:43:00.834Z,0.70
2022-09-10T09:45:45.523Z,0.80
2022-09-10T09:50:41.800Z,0.75
2022-09-10T09:53:16.043Z,0.50
2022-09-10T09:55:47.031Z,0.60
2022-09-10T09:58:24.073Z,0.55
2022-09-10T10:00:55.556Z,0.40
2022-09-10T10:03:33.756Z,0.40
2022-09-10T10:06:13.761Z,0.50
2022-09-10T10:08:47.993Z,0.32
2022-09-10T10:11:18.557Z,0.68
2022-09-10T10:13:46.368Z,0.50
2022-09-10T10:16:31.197Z,0.50
2022-09-10T10:18:57.642Z,0.50
2022-09-10T10:21:34.441Z,0.47
2022-09-10T10:24:01.068Z,0.40
2022-09-10T10:26:32.085Z,0.50
2022-09-10T10:29:06.414Z,0.60
2022-09-10T10:31:53.569Z,1.70
2022-09-10T10:34:45.188Z,0.93
2022-09-10T10:37:37.550Z,0.70
2022-09-10T10:40:18.835Z,0.60
2022-09-10T10:43:15.733Z,0.55
2022-09-10T10:45:52.326Z,1.02
2022-09-10T10:48:35.130Z,1.02
2022-09-10T10:51:26.991Z,0.90
2022-09-10T10:54:02.779Z,1.17
2022-09-10T10:56:36.213Z,0.88
2022-09-10T10:59:36.104Z,0.73
2022-09-10T11:02:36.493Z,0.50
2022-09-10T11:05:16.643Z,0.45
2022-09-10T11:07:43.940Z,0.40
2022-09-10T11:10:23.449Z,0.32
2022-09-10T11:13:02.551Z,0.45
2022-09-10T11:15:36.059Z,0.30
2022-09-10T11:18:13.897Z,0.50
2022-09-10T11:20:46.454Z,0.40
2022-09-10T11:23:22.594Z,0.47
2022-09-10T11:26:03.422Z,0.40
2022-09-10T11:28:54.284Z,0.60
2022-09-10T11:34:32.418Z,0.40
2022-09-10T11:37:10.591Z,0.40
2022-09-10T11:39:39.952Z,0.52
2022-09-10T11:42:17.679Z,0.30
2022-09-10T11:45:05.341Z,1.30
2022-09-10T11:48:00.628Z,1.10
2022-09-10T11:50:34.720Z,0.60
2022-09-10T11:53:02.411Z,0.40
2022-09-10T11:55:50.734Z,0.50
2022-09-10T11:58:23.240Z,0.30
2022-09-10T12:00:58.945Z,0.32
2022-09-10T12:03:50.842Z,0.40
2022-09-10T12:06:31.436Z,0.50
2022-09-10T12:09:10.078Z,0.50
2022-09-10T12:12:03.234Z,0.50
2022-09-10T12:14:30.401Z,0.50
2022-09-10T12:16:57.637Z,0.30
2022-09-10T12:19:40.090Z,0.40
2022-09-10T12:22:17.042Z,0.40
2022-09-10T12:24:58.741Z,0.40
2022-09-10T12:27:43.736Z,0.43
2022-09-10T12:30:27.339Z,0.30
2022-09-10T12:32:55.511Z,0.20
2022-09-10T12:35:37.940Z,0.40
2022-09-10T12:38:42.227Z,0.40
2022-09-10T12:41:14.725Z,0.50
2022-09-10T12:43:41.215Z,0.40
2022-09-10T12:46:11.905Z,0.38
2022-09-10T12:48:40.130Z,0.30
2022-09-10T12:51:18.948Z,0.40
2022-09-10T12:53:45.307Z,0.63
2022-09-10T12:56:26.999Z,0.40
2022-09-10T12:59:31.216Z,0.40
2022-09-10T13:02:03.601Z,0.47
2022-09-10T13:04:39.139Z,0.30
2022-09-10T13:07:31.700Z,0.50
2022-09-10T13:10:21.669Z,0.30
2022-09-10T13:12:53.021Z,0.85
2022-09-10T13:15:22.065Z,0.40
2022-09-10T13:17:48.492Z,0.55
2022-09-10T13:20:31.037Z,0.40
2022-09-10T13:23:29.405Z,0.40
2022-09-10T13:26:31.537Z,0.32
2022-09-10T13:29:00.803Z,0.52
2022-09-10T13:31:31.610Z,0.38
2022-09-10T13:34:14.195Z,0.43
2022-09-10T13:36:56.971Z,0.32
2022-09-10T13:39:31.530Z,0.30
2022-09-10T13:42:32.390Z,0.40
2022-09-10T13:45:10.563Z,0.45
2022-09-10T13:47:51.587Z,0.60
2022-09-10T13:50:20.617Z,0.40
2022-09-10T13:52:51.280Z,0.30
2022-09-10T13:55:27.455Z,0.38
2022-09-10T13:58:12.229Z,0.40
2022-09-10T14:00:48.303Z,0.50
2022-09-10T14:03:25.176Z,0.40
2022-09-10T14:06:01.745Z,0.40
2022-09-10T14:08:39.688Z,0.52
2022-09-10T14:11:14.401Z,0.30
2022-09-10T14:13:45.262Z,0.40
2022-09-10T14:16:20.919Z,0.40
2022-09-10T14:18:52.300Z,0.40
2022-09-10T14:21:19.619Z,0.40
2022-09-10T14:23:50.258Z,0.50
2022-09-10T14:26:30.898Z,0.47
2022-09-10T14:29:01.427Z,0.50
2022-09-10T14:31:31.382Z,0.47
2022-09-10T14:34:05.938Z,0.38
2022-09-10T14:36:34.026Z,0.40
2022-09-10T14:39:06.784Z,0.57
2022-09-10T14:41:36.684Z,0.50
2022-09-10T14:44:23.453Z,0.40
2022-09-10T14:46:57.226Z,0.60
2022-09-10T14:49:34.643Z,0.57
2022-09-10T14:52:02.100Z,0.40
2022-09-10T14:54:30.514Z,0.50
2022-09-10T14:57:02.698Z,0.50
2022-09-10T14:59:47.511Z,0.40
2022-09-10T15:02:21.705Z,0.40
2022-09-10T15:04:50.734Z,0.38
2022-09-10T15:07:17.252Z,0.50
2022-09-10T15:09:43.729Z,0.52
2022-09-10T15:12:22.639Z,1.25
2022-09-10T15:14:49.517Z,0.60
2022-09-10T15:17:17.633Z,0.50
2022-09-10T15:19:45.014Z,0.50
2022-09-10T15:22:25.213Z,0.50
2022-09-10T15:25:11.471Z,0.52
2022-09-10T15:27:42.941Z,0.65
2022-09-10T15:30:11.072Z,0.50
2022-09-10T15:32:37.545Z,0.50
2022-09-10T15:35:05.120Z,0.40
2022-09-10T15:37:33.852Z,0.50
2022-09-10T15:40:00.370Z,1.05
2022-09-10T15:42:26.918Z,0.80
2022-09-10T15:44:53.360Z,0.60
2022-09-10T15:47:21.695Z,0.50
2022-09-10T15:49:51.218Z,0.50
2022-09-10T15:52:19.900Z,0.60
2022-09-10T15:54:46.350Z,0.63
2022-09-10T15:57:12.843Z,1.15
2022-09-10T15:59:39.362Z,0.50
2022-09-10T16:02:06.614Z,0.50
2022-09-10T16:04:36.167Z,0.45
2022-09-10T16:07:03.874Z,0.60
2022-09-10T16:09:31.789Z,0.40
2022-09-10T16:11:59.639Z,0.60
2022-09-10T16:14:28.169Z,1.02
2022-09-10T16:16:56.867Z,0.60
2022-09-10T16:19:23.353Z,0.70
2022-09-10T16:21:49.962Z,0.50
2022-09-10T16:24:17.873Z,0.75
2022-09-10T16:26:49.041Z,0.57
2022-09-10T16:29:17.693Z,0.70
2022-09-10T16:31:48.704Z,0.80
2022-09-10T16:34:19.278Z,0.60
2022-09-10T16:36:50.860Z,0.70
2022-09-10T16:39:23.294Z,0.98
2022-09-10T16:41:50.900Z,0.75
2022-09-10T16:44:19.558Z,0.70
2022-09-10T16:46:48.563Z,0.73
2022-09-10T16:49:18.104Z,0.77
2022-09-10T16:51:46.377Z,0.70
2022-09-10T16:54:14.011Z,0.60
2022-09-10T16:56:42.811Z,0.40
2022-09-10T16:59:18.500Z,0.47
2022-09-10T17:01:47.852Z,0.60
2022-09-10T17:04:26.018Z,0.70
2022-09-10T17:06:55.162Z,0.70
2022-09-10T17:09:22.438Z,0.70
2022-09-10T17:11:48.836Z,0.80
2022-09-10T17:14:15.260Z,0.93
2022-09-10T17:16:42.198Z,0.50
2022-09-10T17:19:14.176Z,0.63
2022-09-10T17:24:09.064Z,0.60
2022-09-10T17:26:37.174Z,0.80
2022-09-10T17:29:06.406Z,0.80
2022-09-10T17:31:33.445Z,0.80
2022-09-10T17:34:00.876Z,1.08
2022-09-10T17:36:28.236Z,1.13
2022-09-10T17:38:56.155Z,0.70
2022-09-10T17:41:23.986Z,0.63
2022-09-10T17:43:50.961Z,1.00
2022-09-10T17:46:19.681Z,0.80
2022-09-10T17:48:46.195Z,0.60
2022-09-10T17:51:14.649Z,1.20
2022-09-10T17:53:41.286Z,0.60
2022-09-10T17:56:10.763Z,1.98
2022-09-10T17:58:37.210Z,1.80
2022-09-10T18:01:07.836Z,1.45
2022-09-10T18:03:36.403Z,0.93
2022-09-10T18:06:08.545Z,1.20
2022-09-10T18:08:35.950Z,0.98
2022-09-10T18:11:06.716Z,1.35
2022-09-10T18:13:34.518Z,1.40
2022-09-10T18:16:21.845Z,1.30
2022-09-10T18:18:56.231Z,0.98
2022-09-10T18:21:31.033Z,1.20
2022-09-10T18:24:01.602Z,1.20
2022-09-10T18:26:30.351Z,0.95
2022-09-10T18:28:59.388Z,0.95
2022-09-10T18:31:29.128Z,1.27
2022-09-10T18:33:55.777Z,1.00
2022-09-10T18:36:23.789Z,1.20
2022-09-10T18:38:50.456Z,1.08
2022-09-10T18:41:28.412Z,0.90
2022-09-10T18:43:58.277Z,1.15
2022-09-10T18:46:26.119Z,1.13
2022-09-10T18:48:53.205Z,1.30
2022-09-10T18:51:22.550Z,1.40
2022-09-10T18:53:55.512Z,1.30
2022-09-10T18:56:24.324Z,1.40
2022-09-10T18:59:04.787Z,1.00
2022-09-10T19:01:31.906Z,1.80
2022-09-10T19:03:59.004Z,2.35
2022-09-10T19:06:29.900Z,1.90
2022-09-10T19:09:15.057Z,1.55
2022-09-10T19:11:43.770Z,1.92
2022-09-10T19:14:22.017Z,1.65
2022-09-10T19:16:50.118Z,2.10
2022-09-10T19:19:24.889Z,1.40
2022-09-10T19:21:53.617Z,1.55
2022-09-10T19:24:32.946Z,1.25
2022-09-10T19:27:08.686Z,1.27
2022-09-10T19:29:40.127Z,1.20
2022-09-10T19:32:11.570Z,0.95
2022-09-10T19:34:38.947Z,1.50
2022-09-10T19:37:07.914Z,1.92
2022-09-10T19:39:36.927Z,1.60
2022-09-10T19:42:03.526Z,1.90
2022-09-10T19:44:29.950Z,1.60
2022-09-10T19:46:56.442Z,1.60
2022-09-10T19:49:22.892Z,1.48
2022-09-10T19:51:55.970Z,1.27
2022-09-10T19:54:24.462Z,1.42
2022-09-10T19:56:55.188Z,1.42
2022-09-10T19:59:26.347Z,1.40
2022-09-10T20:01:53.369Z,1.10
2022-09-10T20:04:19.953Z,1.55
2022-09-10T20:06:52.642Z,1.63
2022-09-10T20:09:22.083Z,1.10
2022-09-10T20:11:51.085Z,1.25
2022-09-10T20:14:17.547Z,1.40
2022-09-10T20:16:48.276Z,1.65
2022-09-10T20:19:18.287Z,1.45
2022-09-10T20:21:47.963Z,1.48
2022-09-10T20:24:17.669Z,1.60
2022-09-10T20:26:46.250Z,1.88
2022-09-10T20:29:14.669Z,2.92
2022-09-10T20:31:43.603Z,2.88
2022-09-10T20:34:15.630Z,2.70
2022-09-10T20:36:49.335Z,2.38
2022-09-10T20:39:20.548Z,2.58
2022-09-10T20:41:47.163Z,2.53
2022-09-10T20:44:15.392Z,2.25
2022-09-10T20:46:45.093Z,2.47
2022-09-10T20:49:16.890Z,2.47
2022-09-10T20:51:44.436Z,2.20
2022-09-10T20:54:19.275Z,1.90
2022-09-10T20:56:46.474Z,2.00
2022-09-10T20:59:15.426Z,1.70
2022-09-10T21:01:44.074Z,1.77
2022-09-10T21:04:12.434Z,1.90
2022-09-10T21:06:40.738Z,1.70
2022-09-10T21:09:07.183Z,1.60
2022-09-10T21:11:34.603Z,1.30
2022-09-10T21:14:05.034Z,1.13
2022-09-10T21:16:37.668Z,1.95
2022-09-10T21:19:12.250Z,1.70
2022-09-10T21:21:41.703Z,1.67
2022-09-10T21:24:16.820Z,1.20
2022-09-10T21:26:44.907Z,1.15
2022-09-10T21:29:15.869Z,1.35
2022-09-10T21:31:46.343Z,1.52
2022-09-10T21:34:13.628Z,1.00
2022-09-10T21:36:46.168Z,1.23
2022-09-10T21:39:15.055Z,1.40
2022-09-10T21:41:51.357Z,1.60
2022-09-10T21:44:24.251Z,1.00
2022-09-10T21:46:57.672Z,1.10
2022-09-10T21:49:24.390Z,0.73
2022-09-10T21:51:55.081Z,1.20
2022-09-10T21:54:25.418Z,1.20
2022-09-10T21:56:52.285Z,1.08
2022-09-10T21:59:20.393Z,1.45
2022-09-10T22:01:47.473Z,1.10
2022-09-10T22:04:21.481Z,1.60
2022-09-10T22:06:49.184Z,1.70
2022-09-10T22:09:17.602Z,1.02
2022-09-10T22:11:52.360Z,1.10
2022-09-10T22:14:21.656Z,1.20
2022-09-10T22:16:50.390Z,1.52
2022-09-10T22:19:24.892Z,1.63
2022-09-10T22:21:58.461Z,2.03
2022-09-10T22:24:27.398Z,0.90
2022-09-10T22:26:54.534Z,1.10
2022-09-10T22:29:21.174Z,2.03
2022-09-10T22:31:48.455Z,1.27
2022-09-10T22:34:16.421Z,1.90
2022-09-10T22:36:46.110Z,1.70
2022-09-10T22:39:14.881Z,1.45
2022-09-10T22:41:41.833Z,1.20
2022-09-10T22:44:08.964Z,1.50
2022-09-10T22:46:36.630Z,1.33
2022-09-10T22:49:04.113Z,1.48
2022-09-10T22:51:34.759Z,1.27
2022-09-10T22:54:05.560Z,1.00
2022-09-10T22:56:42.281Z,1.10
2022-09-10T22:59:11.752Z,0.70
2022-09-10T23:01:38.322Z,0.98
2022-09-10T23:04:06.086Z,0.70
2022-09-10T23:06:34.921Z,0.77
2022-09-10T23:09:09.288Z,0.63
2022-09-10T23:11:36.877Z,0.98
2022-09-10T23:14:09.195Z,1.00
2022-09-10T23:16:42.313Z,0.90
2022-09-10T23:19:12.123Z,1.40
2022-09-10T23:21:49.348Z,1.10
2022-09-10T23:24:20.224Z,0.85
2022-09-10T23:26:46.740Z,1.00
2022-09-10T23:29:15.613Z,0.90
2022-09-10T23:31:42.242Z,0.98
2022-09-10T23:34:11.641Z,1.08
2022-09-10T23:36:40.493Z,0.55
2022-09-10T23:39:15.626Z,0.88
2022-09-10T23:41:42.582Z,0.50
2022-09-10T23:44:10.858Z,0.60
2022-09-10T23:46:42.352Z,0.47
2022-09-10T23:49:11.080Z,0.40
2022-09-10T23:51:39.061Z,0.80
2022-09-10T23:54:06.139Z,0.57
2022-09-10T23:56:32.664Z,0.50
2022-09-10T23:59:04.908Z,0.40
